sensor_id;sensor_type;location;lat;lon;timestamp;pressure;altitude;pressure_sealevel;temperature;humidity
19457;BME280;9867;48.094;11.478;2023-07-16T00:00:27;94949.09;;;22.22;100.00
19457;BME280;9867;48.094;11.478;2023-07-16T00:02:57;94949.69;;;22.14;100.00
19457;BME280;9867;48.094;11.478;2023-07-16T00:05:25;94953.91;;;22.10;100.00
19457;BME280;9867;48.094;11.478;2023-07-16T00:07:53;94950.22;;;22.16;100.00
19457;BME280;9867;48.094;11.478;2023-07-16T00:10:21;94959.97;;;22.00;100.00
19457;BME280;9867;48.094;11.478;2023-07-16T00:12:51;94942.78;;;21.89;100.00
19457;BME280;9867;48.094;11.478;2023-07-16T00:15:19;94953.50;;;21.93;100.00
19457;BME280;9867;48.094;11.478;2023-07-16T00:17:47;94951.94;;;21.87;100.00
19457;BME280;9867;48.094;11.478;2023-07-16T00:20:15;94954.22;;;21.98;100.00
19457;BME280;9867;48.094;11.478;2023-07-16T00:22:43;94954.47;;;21.97;100.00
19457;BME280;9867;48.094;11.478;2023-07-16T00:25:11;94980.31;;;22.08;100.00
19457;BME280;9867;48.094;11.478;2023-07-16T00:27:39;94967.28;;;21.98;100.00
19457;BME280;9867;48.094;11.478;2023-07-16T00:30:10;94967.19;;;22.19;100.00
19457;BME280;9867;48.094;11.478;2023-07-16T00:32:38;94964.47;;;22.29;100.00
19457;BME280;9867;48.094;11.478;2023-07-16T00:35:07;94972.75;;;22.41;100.00
19457;BME280;9867;48.094;11.478;2023-07-16T00:37:36;94987.97;;;22.34;100.00
19457;BME280;9867;48.094;11.478;2023-07-16T00:40:07;94989.53;;;22.35;100.00
19457;BME280;9867;48.094;11.478;2023-07-16T00:42:35;95014.69;;;22.26;100.00
19457;BME280;9867;48.094;11.478;2023-07-16T00:45:11;95034.13;;;22.15;100.00
19457;BME280;9867;48.094;11.478;2023-07-16T00:47:41;95054.84;;;21.91;100.00
19457;BME280;9867;48.094;11.478;2023-07-16T00:50:10;95077.56;;;22.00;100.00
19457;BME280;9867;48.094;11.478;2023-07-16T00:52:39;95089.84;;;21.95;100.00
19457;BME280;9867;48.094;11.478;2023-07-16T00:55:08;95110.50;;;21.91;100.00
19457;BME280;9867;48.094;11.478;2023-07-16T00:57:38;95105.03;;;21.83;100.00
19457;BME280;9867;48.094;11.478;2023-07-16T01:00:10;95121.28;;;21.69;100.00
19457;BME280;9867;48.094;11.478;2023-07-16T01:02:40;95126.78;;;21.68;100.00
19457;BME280;9867;48.094;11.478;2023-07-16T01:05:08;95145.06;;;21.68;100.00
19457;BME280;9867;48.094;11.478;2023-07-16T01:07:37;95151.59;;;21.65;100.00
19457;BME280;9867;48.094;11.478;2023-07-16T01:10:10;95154.47;;;21.54;100.00
19457;BME280;9867;48.094;11.478;2023-07-16T01:12:39;95164.16;;;21.38;100.00
19457;BME280;9867;48.094;11.478;2023-07-16T01:15:08;95141.97;;;21.40;100.00
19457;BME280;9867;48.094;11.478;2023-07-16T01:17:40;95164.97;;;21.43;100.00
19457;BME280;9867;48.094;11.478;2023-07-16T01:20:09;95156.31;;;21.53;100.00
19457;BME280;9867;48.094;11.478;2023-07-16T01:23:15;95165.44;;;21.56;100.00
19457;BME280;9867;48.094;11.478;2023-07-16T01:26:14;95173.56;;;21.49;100.00
19457;BME280;9867;48.094;11.478;2023-07-16T01:31:51;95182.16;;;21.55;100.00
19457;BME280;9867;48.094;11.478;2023-07-16T01:34:20;95193.09;;;21.72;100.00
19457;BME280;9867;48.094;11.478;2023-07-16T01:36:49;95197.28;;;21.58;100.00
19457;BME280;9867;48.094;11.478;2023-07-16T01:39:18;95191.56;;;21.51;100.00
19457;BME280;9867;48.094;11.478;2023-07-16T01:41:46;95188.63;;;21.77;100.00
19457;BME280;9867;48.094;11.478;2023-07-16T01:44:14;95187.63;;;21.68;100.00
19457;BME280;9867;48.094;11.478;2023-07-16T01:46:42;95188.44;;;21.49;100.00
19457;BME280;9867;48.094;11.478;2023-07-16T01:49:12;95193.06;;;21.77;100.00
19457;BME280;9867;48.094;11.478;2023-07-16T01:51:40;95183.44;;;21.62;100.00
19457;BME280;9867;48.094;11.478;2023-07-16T01:54:08;95183.19;;;21.64;100.00
19457;BME280;9867;48.094;11.478;2023-07-16T01:56:36;95196.50;;;21.72;100.00
19457;BME280;9867;48.094;11.478;2023-07-16T01:59:04;95200.09;;;22.02;100.00
19457;BME280;9867;48.094;11.478;2023-07-16T02:01:32;95200.34;;;22.05;100.00
19457;BME280;9867;48.094;11.478;2023-07-16T02:04:00;95200.00;;;22.32;100.00
19457;BME280;9867;48.094;11.478;2023-07-16T02:06:30;95200.25;;;22.31;100.00
19457;BME280;9867;48.094;11.478;2023-07-16T02:08:58;95197.88;;;22.39;100.00
19457;BME280;9867;48.094;11.478;2023-07-16T02:11:26;95212.47;;;22.45;100.00
19457;BME280;9867;48.094;11.478;2023-07-16T02:13:54;95211.69;;;22.45;100.00
19457;BME280;9867;48.094;11.478;2023-07-16T02:16:22;95227.09;;;22.52;100.00
19457;BME280;9867;48.094;11.478;2023-07-16T02:18:50;95225.53;;;22.45;100.00
19457;BME280;9867;48.094;11.478;2023-07-16T02:21:18;95233.91;;;22.48;100.00
19457;BME280;9867;48.094;11.478;2023-07-16T02:23:49;95224.22;;;22.48;100.00
19457;BME280;9867;48.094;11.478;2023-07-16T02:26:17;95210.09;;;22.49;100.00
19457;BME280;9867;48.094;11.478;2023-07-16T02:28:45;95212.69;;;22.54;100.00
19457;BME280;9867;48.094;11.478;2023-07-16T02:31:14;95219.50;;;22.50;100.00
19457;BME280;9867;48.094;11.478;2023-07-16T02:33:42;95216.09;;;22.55;100.00
19457;BME280;9867;48.094;11.478;2023-07-16T02:36:10;95223.16;;;22.54;100.00
19457;BME280;9867;48.094;11.478;2023-07-16T02:38:38;95222.97;;;22.35;100.00
19457;BME280;9867;48.094;11.478;2023-07-16T02:41:07;95229.03;;;22.26;100.00
19457;BME280;9867;48.094;11.478;2023-07-16T02:43:35;95226.47;;;22.10;100.00
19457;BME280;9867;48.094;11.478;2023-07-16T02:46:03;95230.16;;;21.89;100.00
19457;BME280;9867;48.094;11.478;2023-07-16T02:48:31;95234.88;;;21.82;100.00
19457;BME280;9867;48.094;11.478;2023-07-16T02:51:01;95229.38;;;21.78;100.00
19457;BME280;9867;48.094;11.478;2023-07-16T02:53:29;95229.69;;;21.72;100.00
19457;BME280;9867;48.094;11.478;2023-07-16T02:55:57;95239.81;;;21.78;100.00
19457;BME280;9867;48.094;11.478;2023-07-16T02:58:26;95240.88;;;21.93;100.00
19457;BME280;9867;48.094;11.478;2023-07-16T03:00:54;95250.25;;;22.09;100.00
19457;BME280;9867;48.094;11.478;2023-07-16T03:03:23;95245.06;;;21.89;100.00
19457;BME280;9867;48.094;11.478;2023-07-16T03:05:51;95238.78;;;21.95;100.00
19457;BME280;9867;48.094;11.478;2023-07-16T03:08:19;95242.66;;;21.97;100.00
19457;BME280;9867;48.094;11.478;2023-07-16T03:10:48;95230.66;;;21.96;100.00
19457;BME280;9867;48.094;11.478;2023-07-16T03:13:16;95239.56;;;21.95;100.00
19457;BME280;9867;48.094;11.478;2023-07-16T03:15:45;95241.63;;;21.98;100.00
19457;BME280;9867;48.094;11.478;2023-07-16T03:18:14;95228.06;;;21.81;100.00
19457;BME280;9867;48.094;11.478;2023-07-16T03:20:42;95241.41;;;21.90;100.00
19457;BME280;9867;48.094;11.478;2023-07-16T03:23:10;95246.63;;;21.79;100.00
19457;BME280;9867;48.094;11.478;2023-07-16T03:25:38;95249.78;;;21.71;100.00
19457;BME280;9867;48.094;11.478;2023-07-16T03:28:06;95253.97;;;21.67;100.00
19457;BME280;9867;48.094;11.478;2023-07-16T03:30:34;95267.81;;;21.63;100.00
19457;BME280;9867;48.094;11.478;2023-07-16T03:33:05;95272.78;;;21.44;100.00
19457;BME280;9867;48.094;11.478;2023-07-16T03:35:34;95270.16;;;21.39;100.00
19457;BME280;9867;48.094;11.478;2023-07-16T03:38:02;95282.16;;;21.40;100.00
19457;BME280;9867;48.094;11.478;2023-07-16T03:40:30;95280.34;;;21.25;100.00
19457;BME280;9867;48.094;11.478;2023-07-16T03:42:58;95290.25;;;21.23;100.00
19457;BME280;9867;48.094;11.478;2023-07-16T03:45:27;95281.88;;;21.21;100.00
19457;BME280;9867;48.094;11.478;2023-07-16T03:47:55;95280.81;;;21.17;100.00
19457;BME280;9867;48.094;11.478;2023-07-16T03:50:24;95287.84;;;21.17;100.00
19457;BME280;9867;48.094;11.478;2023-07-16T03:52:55;95275.28;;;20.98;100.00
19457;BME280;9867;48.094;11.478;2023-07-16T03:55:23;95269.28;;;20.93;100.00
19457;BME280;9867;48.094;11.478;2023-07-16T03:57:51;95274.22;;;20.84;100.00
19457;BME280;9867;48.094;11.478;2023-07-16T04:00:19;95277.03;;;20.67;100.00
19457;BME280;9867;48.094;11.478;2023-07-16T04:02:49;95293.72;;;20.66;100.00
19457;BME280;9867;48.094;11.478;2023-07-16T04:05:18;95288.97;;;20.58;100.00
19457;BME280;9867;48.094;11.478;2023-07-16T04:07:51;95263.44;;;20.08;100.00
19457;BME280;9867;48.094;11.478;2023-07-16T04:10:19;95263.81;;;19.85;100.00
19457;BME280;9867;48.094;11.478;2023-07-16T04:12:47;95261.63;;;19.66;100.00
19457;BME280;9867;48.094;11.478;2023-07-16T04:15:15;95244.19;;;19.67;100.00
19457;BME280;9867;48.094;11.478;2023-07-16T04:17:43;95254.59;;;19.67;100.00
19457;BME280;9867;48.094;11.478;2023-07-16T04:20:11;95254.31;;;19.63;100.00
19457;BME280;9867;48.094;11.478;2023-07-16T04:22:39;95257.81;;;19.47;100.00
19457;BME280;9867;48.094;11.478;2023-07-16T04:25:09;95249.09;;;19.31;100.00
19457;BME280;9867;48.094;11.478;2023-07-16T04:27:37;95253.72;;;19.24;100.00
19457;BME280;9867;48.094;11.478;2023-07-16T04:30:07;95242.97;;;19.16;100.00
19457;BME280;9867;48.094;11.478;2023-07-16T04:32:36;95250.88;;;19.53;100.00
19457;BME280;9867;48.094;11.478;2023-07-16T04:35:05;95263.13;;;19.57;100.00
19457;BME280;9867;48.094;11.478;2023-07-16T04:37:33;95260.03;;;19.60;100.00
19457;BME280;9867;48.094;11.478;2023-07-16T04:40:01;95259.09;;;19.77;100.00
19457;BME280;9867;48.094;11.478;2023-07-16T04:42:32;95263.78;;;19.74;100.00
19457;BME280;9867;48.094;11.478;2023-07-16T04:45:00;95269.97;;;19.68;100.00
19457;BME280;9867;48.094;11.478;2023-07-16T04:47:28;95276.75;;;19.69;100.00
19457;BME280;9867;48.094;11.478;2023-07-16T04:49:57;95270.78;;;19.74;100.00
19457;BME280;9867;48.094;11.478;2023-07-16T04:52:26;95275.13;;;19.63;100.00
19457;BME280;9867;48.094;11.478;2023-07-16T04:54:54;95282.69;;;19.60;100.00
19457;BME280;9867;48.094;11.478;2023-07-16T04:57:21;95271.88;;;19.78;100.00
19457;BME280;9867;48.094;11.478;2023-07-16T04:59:51;95264.09;;;19.88;100.00
19457;BME280;9867;48.094;11.478;2023-07-16T05:02:19;95251.41;;;19.97;100.00
19457;BME280;9867;48.094;11.478;2023-07-16T05:04:47;95253.53;;;20.05;100.00
19457;BME280;9867;48.094;11.478;2023-07-16T05:07:15;95263.72;;;20.12;100.00
19457;BME280;9867;48.094;11.478;2023-07-16T05:09:43;95273.66;;;20.20;100.00
19457;BME280;9867;48.094;11.478;2023-07-16T05:12:11;95277.91;;;20.31;100.00
19457;BME280;9867;48.094;11.478;2023-07-16T05:14:43;95279.69;;;20.25;100.00
19457;BME280;9867;48.094;11.478;2023-07-16T05:17:14;95287.34;;;20.42;100.00
19457;BME280;9867;48.094;11.478;2023-07-16T05:19:42;95294.44;;;20.57;100.00
19457;BME280;9867;48.094;11.478;2023-07-16T05:22:10;95305.66;;;20.57;100.00
19457;BME280;9867;48.094;11.478;2023-07-16T05:24:38;95306.03;;;20.86;100.00
19457;BME280;9867;48.094;11.478;2023-07-16T05:27:06;95306.78;;;20.71;100.00
19457;BME280;9867;48.094;11.478;2023-07-16T05:29:34;95319.75;;;21.24;100.00
19457;BME280;9867;48.094;11.478;2023-07-16T05:32:03;95318.19;;;21.43;100.00
19457;BME280;9867;48.094;11.478;2023-07-16T05:34:32;95315.81;;;21.31;100.00
19457;BME280;9867;48.094;11.478;2023-07-16T05:37:01;95323.69;;;21.41;100.00
19457;BME280;9867;48.094;11.478;2023-07-16T05:39:29;95330.47;;;21.48;100.00
19457;BME280;9867;48.094;11.478;2023-07-16T05:41:57;95333.56;;;21.29;100.00
19457;BME280;9867;48.094;11.478;2023-07-16T05:44:25;95342.75;;;21.62;100.00
19457;BME280;9867;48.094;11.478;2023-07-16T05:46:52;95353.47;;;21.81;100.00
19457;BME280;9867;48.094;11.478;2023-07-16T05:49:20;95363.38;;;22.35;100.00
19457;BME280;9867;48.094;11.478;2023-07-16T05:51:50;95377.97;;;22.51;100.00
19457;BME280;9867;48.094;11.478;2023-07-16T05:54:18;95385.81;;;22.51;100.00
19457;BME280;9867;48.094;11.478;2023-07-16T05:56:46;95371.75;;;22.27;100.00
19457;BME280;9867;48.094;11.478;2023-07-16T05:59:14;95371.22;;;21.99;100.00
19457;BME280;9867;48.094;11.478;2023-07-16T06:01:42;95368.91;;;22.13;100.00
19457;BME280;9867;48.094;11.478;2023-07-16T06:04:10;95365.75;;;21.96;100.00
19457;BME280;9867;48.094;11.478;2023-07-16T06:06:38;95374.38;;;22.17;100.00
19457;BME280;9867;48.094;11.478;2023-07-16T06:09:07;95380.38;;;21.92;100.00
19457;BME280;9867;48.094;11.478;2023-07-16T06:11:35;95371.78;;;22.11;100.00
19457;BME280;9867;48.094;11.478;2023-07-16T06:14:03;95387.97;;;22.08;100.00
19457;BME280;9867;48.094;11.478;2023-07-16T06:16:31;95384.81;;;21.96;100.00
19457;BME280;9867;48.094;11.478;2023-07-16T06:18:59;95387.16;;;21.98;100.00
19457;BME280;9867;48.094;11.478;2023-07-16T06:21:27;95395.03;;;22.08;100.00
19457;BME280;9867;48.094;11.478;2023-07-16T06:23:55;95398.44;;;22.03;100.00
19457;BME280;9867;48.094;11.478;2023-07-16T06:26:24;95388.44;;;21.60;100.00
19457;BME280;9867;48.094;11.478;2023-07-16T06:28:52;95397.09;;;21.81;100.00
19457;BME280;9867;48.094;11.478;2023-07-16T06:31:20;95395.50;;;21.79;100.00
19457;BME280;9867;48.094;11.478;2023-07-16T06:33:52;95400.50;;;21.96;100.00
19457;BME280;9867;48.094;11.478;2023-07-16T06:36:20;95393.47;;;22.12;100.00
19457;BME280;9867;48.094;11.478;2023-07-16T06:38:48;95407.06;;;22.09;100.00
19457;BME280;9867;48.094;11.478;2023-07-16T06:41:17;95406.25;;;22.34;100.00
19457;BME280;9867;48.094;11.478;2023-07-16T06:43:46;95407.28;;;22.53;100.00
19457;BME280;9867;48.094;11.478;2023-07-16T06:46:14;95418.75;;;22.77;100.00
19457;BME280;9867;48.094;11.478;2023-07-16T06:48:43;95424.44;;;23.00;100.00
19457;BME280;9867;48.094;11.478;2023-07-16T06:51:11;95424.94;;;23.07;100.00
19457;BME280;9867;48.094;11.478;2023-07-16T06:53:39;95439.25;;;23.30;100.00
19457;BME280;9867;48.094;11.478;2023-07-16T06:56:07;95441.59;;;23.36;100.00
19457;BME280;9867;48.094;11.478;2023-07-16T06:58:35;95439.94;;;23.56;100.00
19457;BME280;9867;48.094;11.478;2023-07-16T07:01:04;95439.25;;;23.30;100.00
19457;BME280;9867;48.094;11.478;2023-07-16T07:03:32;95439.31;;;23.74;100.00
19457;BME280;9867;48.094;11.478;2023-07-16T07:06:02;95451.41;;;23.65;100.00
19457;BME280;9867;48.094;11.478;2023-07-16T07:08:30;95450.44;;;23.56;100.00
19457;BME280;9867;48.094;11.478;2023-07-16T07:10:58;95447.69;;;23.76;100.00
19457;BME280;9867;48.094;11.478;2023-07-16T07:13:26;95448.75;;;23.75;100.00
19457;BME280;9867;48.094;11.478;2023-07-16T07:15:54;95446.34;;;23.84;100.00
19457;BME280;9867;48.094;11.478;2023-07-16T07:18:24;95443.22;;;23.76;100.00
19457;BME280;9867;48.094;11.478;2023-07-16T07:20:51;95438.66;;;23.53;100.00
19457;BME280;9867;48.094;11.478;2023-07-16T07:23:19;95439.59;;;23.08;100.00
19457;BME280;9867;48.094;11.478;2023-07-16T07:25:49;95426.53;;;22.98;100.00
19457;BME280;9867;48.094;11.478;2023-07-16T07:28:20;95442.03;;;23.48;100.00
19457;BME280;9867;48.094;11.478;2023-07-16T07:30:48;95445.44;;;23.49;100.00
19457;BME280;9867;48.094;11.478;2023-07-16T07:33:16;95444.28;;;23.16;100.00
19457;BME280;9867;48.094;11.478;2023-07-16T07:35:45;95444.59;;;22.94;100.00
19457;BME280;9867;48.094;11.478;2023-07-16T07:38:13;95447.63;;;23.32;100.00
19457;BME280;9867;48.094;11.478;2023-07-16T07:40:44;95437.50;;;23.69;100.00
19457;BME280;9867;48.094;11.478;2023-07-16T07:43:12;95443.09;;;23.53;100.00
19457;BME280;9867;48.094;11.478;2023-07-16T07:45:40;95443.50;;;23.75;100.00
19457;BME280;9867;48.094;11.478;2023-07-16T07:48:08;95444.03;;;23.77;100.00
19457;BME280;9867;48.094;11.478;2023-07-16T07:50:36;95446.41;;;23.68;100.00
19457;BME280;9867;48.094;11.478;2023-07-16T07:53:06;95444.94;;;23.42;100.00
19457;BME280;9867;48.094;11.478;2023-07-16T07:55:34;95441.97;;;22.99;100.00
19457;BME280;9867;48.094;11.478;2023-07-16T07:58:02;95431.56;;;22.84;100.00
19457;BME280;9867;48.094;11.478;2023-07-16T08:00:30;95430.59;;;23.34;100.00
19457;BME280;9867;48.094;11.478;2023-07-16T08:02:58;95433.94;;;23.55;100.00
19457;BME280;9867;48.094;11.478;2023-07-16T08:05:27;95427.38;;;23.58;100.00
19457;BME280;9867;48.094;11.478;2023-07-16T08:07:55;95419.44;;;24.07;100.00
19457;BME280;9867;48.094;11.478;2023-07-16T08:10:24;95421.66;;;24.29;100.00
19457;BME280;9867;48.094;11.478;2023-07-16T08:12:52;95417.78;;;24.50;100.00
19457;BME280;9867;48.094;11.478;2023-07-16T08:15:20;95418.81;;;24.54;100.00
19457;BME280;9867;48.094;11.478;2023-07-16T08:17:48;95416.16;;;24.25;100.00
19457;BME280;9867;48.094;11.478;2023-07-16T08:20:20;95414.31;;;24.26;100.00
19457;BME280;9867;48.094;11.478;2023-07-16T08:22:48;95407.53;;;24.20;100.00
19457;BME280;9867;48.094;11.478;2023-07-16T08:25:17;95410.44;;;24.13;100.00
19457;BME280;9867;48.094;11.478;2023-07-16T08:27:47;95418.38;;;24.42;100.00
19457;BME280;9867;48.094;11.478;2023-07-16T08:30:15;95419.44;;;24.94;100.00
19457;BME280;9867;48.094;11.478;2023-07-16T08:32:43;95417.38;;;25.14;100.00
19457;BME280;9867;48.094;11.478;2023-07-16T08:35:11;95420.25;;;24.65;100.00
19457;BME280;9867;48.094;11.478;2023-07-16T08:37:43;95420.31;;;24.84;100.00
19457;BME280;9867;48.094;11.478;2023-07-16T08:40:12;95415.56;;;24.86;100.00
19457;BME280;9867;48.094;11.478;2023-07-16T08:42:40;95422.16;;;24.83;100.00
19457;BME280;9867;48.094;11.478;2023-07-16T08:45:14;95416.63;;;24.85;100.00
19457;BME280;9867;48.094;11.478;2023-07-16T08:47:43;95417.03;;;24.73;100.00
19457;BME280;9867;48.094;11.478;2023-07-16T08:50:11;95414.97;;;24.94;100.00
19457;BME280;9867;48.094;11.478;2023-07-16T08:52:48;95410.16;;;24.77;100.00
19457;BME280;9867;48.094;11.478;2023-07-16T08:55:18;95407.88;;;24.71;100.00
19457;BME280;9867;48.094;11.478;2023-07-16T08:57:46;95413.09;;;25.00;100.00
19457;BME280;9867;48.094;11.478;2023-07-16T09:00:16;95400.47;;;25.02;100.00
19457;BME280;9867;48.094;11.478;2023-07-16T09:02:45;95406.34;;;25.36;100.00
19457;BME280;9867;48.094;11.478;2023-07-16T09:05:14;95401.13;;;25.74;100.00
19457;BME280;9867;48.094;11.478;2023-07-16T09:08:03;95391.72;;;25.49;100.00
19457;BME280;9867;48.094;11.478;2023-07-16T09:10:31;95392.78;;;25.48;100.00
19457;BME280;9867;48.094;11.478;2023-07-16T09:12:59;95391.53;;;25.64;100.00
19457;BME280;9867;48.094;11.478;2023-07-16T09:15:29;95384.13;;;25.85;100.00
19457;BME280;9867;48.094;11.478;2023-07-16T09:17:58;95410.06;;;26.24;100.00
19457;BME280;9867;48.094;11.478;2023-07-16T09:20:26;95397.19;;;26.41;100.00
19457;BME280;9867;48.094;11.478;2023-07-16T09:22:57;95396.31;;;26.27;100.00
19457;BME280;9867;48.094;11.478;2023-07-16T09:25:28;95388.56;;;26.03;100.00
19457;BME280;9867;48.094;11.478;2023-07-16T09:27:58;95390.91;;;25.72;100.00
19457;BME280;9867;48.094;11.478;2023-07-16T09:30:32;95394.44;;;25.81;100.00
19457;BME280;9867;48.094;11.478;2023-07-16T09:33:09;95388.44;;;25.76;100.00
19457;BME280;9867;48.094;11.478;2023-07-16T09:35:38;95380.09;;;26.06;100.00
19457;BME280;9867;48.094;11.478;2023-07-16T09:38:07;95385.59;;;26.24;100.00
19457;BME280;9867;48.094;11.478;2023-07-16T09:40:36;95382.72;;;26.06;100.00
19457;BME280;9867;48.094;11.478;2023-07-16T09:43:06;95381.50;;;25.85;100.00
19457;BME280;9867;48.094;11.478;2023-07-16T09:45:35;95373.28;;;26.05;100.00
19457;BME280;9867;48.094;11.478;2023-07-16T09:48:04;95383.06;;;25.86;100.00
19457;BME280;9867;48.094;11.478;2023-07-16T09:50:34;95366.91;;;25.55;100.00
19457;BME280;9867;48.094;11.478;2023-07-16T09:53:04;95364.34;;;24.65;100.00
19457;BME280;9867;48.094;11.478;2023-07-16T09:55:35;95368.75;;;24.93;100.00
19457;BME280;9867;48.094;11.478;2023-07-16T09:58:07;95372.94;;;25.56;100.00
19457;BME280;9867;48.094;11.478;2023-07-16T10:00:41;95378.38;;;26.15;100.00
19457;BME280;9867;48.094;11.478;2023-07-16T10:03:09;95375.25;;;26.13;100.00
19457;BME280;9867;48.094;11.478;2023-07-16T10:05:38;95371.81;;;26.32;100.00
19457;BME280;9867;48.094;11.478;2023-07-16T10:08:16;95375.47;;;26.17;100.00
19457;BME280;9867;48.094;11.478;2023-07-16T10:10:46;95375.97;;;26.00;100.00
19457;BME280;9867;48.094;11.478;2023-07-16T10:13:15;95375.69;;;26.21;100.00
19457;BME280;9867;48.094;11.478;2023-07-16T10:16:00;95371.06;;;26.45;100.00
19457;BME280;9867;48.094;11.478;2023-07-16T10:18:31;95365.69;;;26.36;100.00
19457;BME280;9867;48.094;11.478;2023-07-16T10:21:03;95371.34;;;26.57;100.00
19457;BME280;9867;48.094;11.478;2023-07-16T10:23:38;95372.25;;;26.80;100.00
19457;BME280;9867;48.094;11.478;2023-07-16T10:26:08;95379.94;;;26.76;100.00
19457;BME280;9867;48.094;11.478;2023-07-16T10:28:37;95370.69;;;26.79;100.00
19457;BME280;9867;48.094;11.478;2023-07-16T10:31:17;95367.00;;;27.07;100.00
19457;BME280;9867;48.094;11.478;2023-07-16T10:33:57;95353.03;;;26.66;100.00
19457;BME280;9867;48.094;11.478;2023-07-16T10:36:26;95360.16;;;26.79;100.00
19457;BME280;9867;48.094;11.478;2023-07-16T10:38:53;95353.91;;;26.61;100.00
19457;BME280;9867;48.094;11.478;2023-07-16T10:41:21;95365.53;;;26.60;100.00
19457;BME280;9867;48.094;11.478;2023-07-16T10:43:49;95362.38;;;26.72;100.00
19457;BME280;9867;48.094;11.478;2023-07-16T10:46:22;95366.97;;;26.80;100.00
19457;BME280;9867;48.094;11.478;2023-07-16T10:48:50;95362.47;;;26.94;100.00
19457;BME280;9867;48.094;11.478;2023-07-16T10:51:25;95362.00;;;26.65;100.00
19457;BME280;9867;48.094;11.478;2023-07-16T10:53:55;95363.38;;;26.62;100.00
19457;BME280;9867;48.094;11.478;2023-07-16T10:56:23;95355.28;;;27.00;100.00
19457;BME280;9867;48.094;11.478;2023-07-16T10:58:51;95359.25;;;27.25;100.00
19457;BME280;9867;48.094;11.478;2023-07-16T11:01:19;95355.28;;;27.49;100.00
19457;BME280;9867;48.094;11.478;2023-07-16T11:03:49;95363.34;;;27.89;100.00
19457;BME280;9867;48.094;11.478;2023-07-16T11:06:18;95359.34;;;27.69;100.00
19457;BME280;9867;48.094;11.478;2023-07-16T11:11:42;95353.84;;;27.79;100.00
19457;BME280;9867;48.094;11.478;2023-07-16T11:14:10;95354.84;;;27.34;100.00
19457;BME280;9867;48.094;11.478;2023-07-16T11:16:38;95348.75;;;27.61;100.00
19457;BME280;9867;48.094;11.478;2023-07-16T11:19:08;95348.31;;;27.67;100.00
19457;BME280;9867;48.094;11.478;2023-07-16T11:21:36;95340.06;;;27.82;100.00
19457;BME280;9867;48.094;11.478;2023-07-16T11:24:08;95338.88;;;28.19;100.00
19457;BME280;9867;48.094;11.478;2023-07-16T11:26:36;95339.19;;;28.49;100.00
19457;BME280;9867;48.094;11.478;2023-07-16T11:29:12;95326.84;;;28.05;99.10
19457;BME280;9867;48.094;11.478;2023-07-16T11:31:41;95344.84;;;28.25;100.00
19457;BME280;9867;48.094;11.478;2023-07-16T11:34:18;95333.88;;;28.09;100.00
19457;BME280;9867;48.094;11.478;2023-07-16T11:36:47;95334.63;;;28.72;100.00
19457;BME280;9867;48.094;11.478;2023-07-16T11:39:17;95340.56;;;28.86;100.00
19457;BME280;9867;48.094;11.478;2023-07-16T11:41:54;95335.22;;;28.29;100.00
19457;BME280;9867;48.094;11.478;2023-07-16T11:44:25;95325.16;;;28.09;100.00
19457;BME280;9867;48.094;11.478;2023-07-16T11:46:53;95324.16;;;27.96;100.00
19457;BME280;9867;48.094;11.478;2023-07-16T11:49:22;95319.56;;;27.79;100.00
19457;BME280;9867;48.094;11.478;2023-07-16T11:51:50;95323.66;;;27.94;100.00
19457;BME280;9867;48.094;11.478;2023-07-16T11:54:18;95316.94;;;28.10;100.00
19457;BME280;9867;48.094;11.478;2023-07-16T11:56:46;95314.69;;;28.57;100.00
19457;BME280;9867;48.094;11.478;2023-07-16T11:59:15;95309.19;;;28.14;100.00
19457;BME280;9867;48.094;11.478;2023-07-16T12:01:49;95314.16;;;28.15;100.00
19457;BME280;9867;48.094;11.478;2023-07-16T12:04:17;95309.72;;;28.56;100.00
19457;BME280;9867;48.094;11.478;2023-07-16T12:06:47;95311.34;;;28.82;100.00
19457;BME280;9867;48.094;11.478;2023-07-16T12:09:15;95314.38;;;29.15;95.30
19457;BME280;9867;48.094;11.478;2023-07-16T12:11:43;95305.81;;;29.18;90.95
19457;BME280;9867;48.094;11.478;2023-07-16T12:14:11;95307.50;;;28.49;97.58
19457;BME280;9867;48.094;11.478;2023-07-16T12:16:39;95293.09;;;27.93;100.00
19457;BME280;9867;48.094;11.478;2023-07-16T12:19:08;95289.16;;;28.92;93.81
19457;BME280;9867;48.094;11.478;2023-07-16T12:21:36;95295.56;;;29.26;92.14
19457;BME280;9867;48.094;11.478;2023-07-16T12:24:06;95292.28;;;28.94;98.75
19457;BME280;9867;48.094;11.478;2023-07-16T12:26:34;95292.44;;;28.49;100.00
19457;BME280;9867;48.094;11.478;2023-07-16T12:29:02;95296.06;;;28.23;100.00
19457;BME280;9867;48.094;11.478;2023-07-16T12:31:30;95296.00;;;28.14;100.00
19457;BME280;9867;48.094;11.478;2023-07-16T12:33:59;95297.81;;;28.27;98.63
19457;BME280;9867;48.094;11.478;2023-07-16T12:36:28;95302.00;;;28.28;99.98
19457;BME280;9867;48.094;11.478;2023-07-16T12:38:56;95308.91;;;28.46;94.25
19457;BME280;9867;48.094;11.478;2023-07-16T12:41:25;95300.09;;;28.20;100.00
19457;BME280;9867;48.094;11.478;2023-07-16T12:43:53;95292.88;;;28.43;100.00
19457;BME280;9867;48.094;11.478;2023-07-16T12:46:22;95304.91;;;28.66;100.00
19457;BME280;9867;48.094;11.478;2023-07-16T12:48:50;95306.28;;;29.12;98.69
19457;BME280;9867;48.094;11.478;2023-07-16T12:51:18;95309.53;;;28.92;100.00
19457;BME280;9867;48.094;11.478;2023-07-16T12:53:46;95304.53;;;28.42;100.00
19457;BME280;9867;48.094;11.478;2023-07-16T12:56:14;95296.59;;;28.33;100.00
19457;BME280;9867;48.094;11.478;2023-07-16T12:58:44;95281.69;;;28.06;100.00
19457;BME280;9867;48.094;11.478;2023-07-16T13:01:12;95295.81;;;27.79;100.00
19457;BME280;9867;48.094;11.478;2023-07-16T13:03:40;95287.28;;;28.05;100.00
19457;BME280;9867;48.094;11.478;2023-07-16T13:06:08;95302.78;;;28.29;100.00